sensor_id;sensor_type;location;lat;lon;timestamp;pressure;altitude;pressure_sealevel;temperature;humidity
6020;BME280;3038;51.122;6.840;2023-02-13T00:02:14;103422.84;;;9.40;75.70
6020;BME280;3038;51.122;6.840;2023-02-13T00:04:40;103414.13;;;9.38;75.46
6020;BME280;3038;51.122;6.840;2023-02-13T00:07:07;103413.47;;;9.34;75.65
6020;BME280;3038;51.122;6.840;2023-02-13T00:09:33;103414.47;;;9.32;75.82
6020;BME280;3038;51.122;6.840;2023-02-13T00:11:58;103416.16;;;9.33;75.46
6020;BME280;3038;51.122;6.840;2023-02-13T00:14:23;103414.66;;;9.29;76.24
6020;BME280;3038;51.122;6.840;2023-02-13T00:16:49;103416.63;;;9.25;75.86
6020;BME280;3038;51.122;6.840;2023-02-13T00:19:14;103413.09;;;9.24;76.06
6020;BME280;3038;51.122;6.840;2023-02-13T00:21:40;103408.56;;;9.26;75.99
6020;BME280;3038;51.122;6.840;2023-02-13T00:24:06;103404.72;;;9.32;76.24
6020;BME280;3038;51.122;6.840;2023-02-13T00:26:31;103403.09;;;9.30;76.09
6020;BME280;3038;51.122;6.840;2023-02-13T00:28:56;103401.41;;;9.29;76.17
6020;BME280;3038;51.122;6.840;2023-02-13T00:31:22;103394.19;;;9.31;76.10
6020;BME280;3038;51.122;6.840;2023-02-13T00:33:48;103398.41;;;9.35;76.24
6020;BME280;3038;51.122;6.840;2023-02-13T00:36:17;103393.59;;;9.25;75.70
6020;BME280;3038;51.122;6.840;2023-02-13T00:38:44;103392.06;;;9.21;76.19
6020;BME280;3038;51.122;6.840;2023-02-13T00:41:10;103381.47;;;9.21;75.96
6020;BME280;3038;51.122;6.840;2023-02-13T00:43:35;103379.59;;;9.23;76.44
6020;BME280;3038;51.122;6.840;2023-02-13T00:46:01;103374.09;;;9.26;76.44
6020;BME280;3038;51.122;6.840;2023-02-13T00:48:28;103385.41;;;9.30;76.50
6020;BME280;3038;51.122;6.840;2023-02-13T00:50:53;103376.41;;;9.33;76.05
6020;BME280;3038;51.122;6.840;2023-02-13T00:53:20;103377.88;;;9.22;76.00
6020;BME280;3038;51.122;6.840;2023-02-13T00:55:46;103376.84;;;9.25;76.09
6020;BME280;3038;51.122;6.840;2023-02-13T00:58:12;103378.72;;;9.23;76.49
6020;BME280;3038;51.122;6.840;2023-02-13T01:00:38;103378.06;;;9.19;76.25
6020;BME280;3038;51.122;6.840;2023-02-13T01:03:04;103379.16;;;9.15;76.22
6020;BME280;3038;51.122;6.840;2023-02-13T01:05:29;103381.81;;;9.15;76.38
6020;BME280;3038;51.122;6.840;2023-02-13T01:07:55;103384.47;;;9.15;75.69
6020;BME280;3038;51.122;6.840;2023-02-13T01:10:20;103383.50;;;9.16;76.09
6020;BME280;3038;51.122;6.840;2023-02-13T01:12:46;103379.16;;;9.15;76.30
6020;BME280;3038;51.122;6.840;2023-02-13T01:15:11;103379.25;;;9.14;76.09
6020;BME280;3038;51.122;6.840;2023-02-13T01:17:36;103377.50;;;9.13;76.04
6020;BME280;3038;51.122;6.840;2023-02-13T01:20:06;103383.66;;;9.13;76.24
6020;BME280;3038;51.122;6.840;2023-02-13T01:22:31;103379.50;;;9.09;76.52
6020;BME280;3038;51.122;6.840;2023-02-13T01:24:56;103374.28;;;9.08;75.54
6020;BME280;3038;51.122;6.840;2023-02-13T01:27:22;103374.38;;;9.06;75.70
6020;BME280;3038;51.122;6.840;2023-02-13T01:29:47;103364.00;;;9.01;76.02
6020;BME280;3038;51.122;6.840;2023-02-13T01:32:13;103367.53;;;9.02;76.62
6020;BME280;3038;51.122;6.840;2023-02-13T01:34:38;103369.41;;;9.00;76.49
6020;BME280;3038;51.122;6.840;2023-02-13T01:37:03;103376.22;;;9.04;75.85
6020;BME280;3038;51.122;6.840;2023-02-13T01:39:29;103376.41;;;9.01;76.79
6020;BME280;3038;51.122;6.840;2023-02-13T01:41:54;103372.91;;;9.00;76.19
6020;BME280;3038;51.122;6.840;2023-02-13T01:47:11;103363.75;;;9.06;76.72
6020;BME280;3038;51.122;6.840;2023-02-13T01:49:39;103366.91;;;9.13;76.00
6020;BME280;3038;51.122;6.840;2023-02-13T01:52:06;103362.97;;;9.04;76.46
6020;BME280;3038;51.122;6.840;2023-02-13T01:54:34;103371.13;;;9.01;76.00
6020;BME280;3038;51.122;6.840;2023-02-13T01:57:07;103370.50;;;8.96;76.58
6020;BME280;3038;51.122;6.840;2023-02-13T02:02:09;103364.38;;;8.95;76.50
6020;BME280;3038;51.122;6.840;2023-02-13T02:04:37;103368.97;;;8.92;76.62
6020;BME280;3038;51.122;6.840;2023-02-13T02:07:07;103364.41;;;8.94;77.11
6020;BME280;3038;51.122;6.840;2023-02-13T02:09:37;103369.72;;;8.94;76.67
6020;BME280;3038;51.122;6.840;2023-02-13T02:12:08;103372.56;;;8.91;77.69
6020;BME280;3038;51.122;6.840;2023-02-13T02:14:35;103369.91;;;8.91;76.81
6020;BME280;3038;51.122;6.840;2023-02-13T02:17:01;103368.97;;;8.92;76.95
6020;BME280;3038;51.122;6.840;2023-02-13T02:27:47;103377.66;;;8.94;77.32
6020;BME280;3038;51.122;6.840;2023-02-13T02:32:55;103374.75;;;8.83;77.14
6020;BME280;3038;51.122;6.840;2023-02-13T02:35:38;103370.41;;;8.82;77.23
6020;BME280;3038;51.122;6.840;2023-02-13T02:38:50;103368.75;;;8.79;77.08
6020;BME280;3038;51.122;6.840;2023-02-13T02:44:42;103370.22;;;8.85;77.17
6020;BME280;3038;51.122;6.840;2023-02-13T02:55:08;103362.28;;;8.85;77.93
6020;BME280;3038;51.122;6.840;2023-02-13T02:57:39;103363.41;;;8.81;77.45
6020;BME280;3038;51.122;6.840;2023-02-13T03:00:26;103360.06;;;8.77;77.63
6020;BME280;3038;51.122;6.840;2023-02-13T03:03:17;103361.06;;;8.74;77.82
6020;BME280;3038;51.122;6.840;2023-02-13T03:06:08;103357.66;;;8.72;77.97
6020;BME280;3038;51.122;6.840;2023-02-13T03:08:43;103365.84;;;8.68;77.46
6020;BME280;3038;51.122;6.840;2023-02-13T03:11:28;103363.03;;;8.71;78.49
6020;BME280;3038;51.122;6.840;2023-02-13T03:14:16;103366.31;;;8.76;77.77
6020;BME280;3038;51.122;6.840;2023-02-13T03:16:43;103364.50;;;8.77;78.00
6020;BME280;3038;51.122;6.840;2023-02-13T03:22:36;103362.63;;;8.79;77.97
6020;BME280;3038;51.122;6.840;2023-02-13T03:25:10;103368.09;;;8.75;78.13
6020;BME280;3038;51.122;6.840;2023-02-13T03:33:34;103366.69;;;8.68;77.92
6020;BME280;3038;51.122;6.840;2023-02-13T03:36:16;103360.41;;;8.71;78.16
6020;BME280;3038;51.122;6.840;2023-02-13T03:47:34;103364.22;;;8.65;78.12
6020;BME280;3038;51.122;6.840;2023-02-13T03:50:00;103359.69;;;8.67;78.13
6020;BME280;3038;51.122;6.840;2023-02-13T03:52:39;103360.09;;;8.60;77.88
6020;BME280;3038;51.122;6.840;2023-02-13T03:55:39;103363.53;;;8.62;78.45
6020;BME280;3038;51.122;6.840;2023-02-13T03:58:29;103362.50;;;8.64;78.14
6020;BME280;3038;51.122;6.840;2023-02-13T04:01:17;103365.00;;;8.67;77.98
6020;BME280;3038;51.122;6.840;2023-02-13T04:03:55;103366.00;;;8.65;77.44
6020;BME280;3038;51.122;6.840;2023-02-13T04:06:26;103372.34;;;8.62;78.03
6020;BME280;3038;51.122;6.840;2023-02-13T04:08:52;103370.53;;;8.63;77.63
6020;BME280;3038;51.122;6.840;2023-02-13T04:11:29;103371.41;;;8.63;78.25
6020;BME280;3038;51.122;6.840;2023-02-13T04:14:03;103375.75;;;8.64;78.25
6020;BME280;3038;51.122;6.840;2023-02-13T04:16:48;103375.75;;;8.64;78.44
6020;BME280;3038;51.122;6.840;2023-02-13T04:19:16;103382.06;;;8.62;77.65
6020;BME280;3038;51.122;6.840;2023-02-13T04:21:42;103373.53;;;8.57;77.38
6020;BME280;3038;51.122;6.840;2023-02-13T04:24:07;103378.72;;;8.58;77.53
6020;BME280;3038;51.122;6.840;2023-02-13T04:26:41;103383.09;;;8.59;77.61
6020;BME280;3038;51.122;6.840;2023-02-13T04:29:08;103373.53;;;8.57;78.10
6020;BME280;3038;51.122;6.840;2023-02-13T04:31:34;103388.38;;;8.59;78.28
6020;BME280;3038;51.122;6.840;2023-02-13T04:33:59;103387.84;;;8.53;77.96
6020;BME280;3038;51.122;6.840;2023-02-13T04:36:25;103375.56;;;8.52;78.05
6020;BME280;3038;51.122;6.840;2023-02-13T04:38:50;103385.31;;;8.51;78.02
6020;BME280;3038;51.122;6.840;2023-02-13T04:41:16;103373.59;;;8.55;78.23
6020;BME280;3038;51.122;6.840;2023-02-13T04:43:41;103384.97;;;8.57;78.25
6020;BME280;3038;51.122;6.840;2023-02-13T04:46:06;103379.81;;;8.54;78.53
6020;BME280;3038;51.122;6.840;2023-02-13T04:48:32;103380.00;;;8.51;78.11
6020;BME280;3038;51.122;6.840;2023-02-13T04:50:57;103376.56;;;8.49;78.32
6020;BME280;3038;51.122;6.840;2023-02-13T04:53:23;103377.59;;;8.46;78.22
6020;BME280;3038;51.122;6.840;2023-02-13T04:55:48;103374.84;;;8.48;78.80
6020;BME280;3038;51.122;6.840;2023-02-13T04:58:13;103380.75;;;8.53;77.99
6020;BME280;3038;51.122;6.840;2023-02-13T05:00:39;103372.81;;;8.53;77.82
6020;BME280;3038;51.122;6.840;2023-02-13T05:03:06;103372.81;;;8.53;77.77
6020;BME280;3038;51.122;6.840;2023-02-13T05:05:32;103367.69;;;8.50;78.41
6020;BME280;3038;51.122;6.840;2023-02-13T05:07:57;103376.47;;;8.50;78.64
6020;BME280;3038;51.122;6.840;2023-02-13T05:10:23;103378.44;;;8.47;78.16
6020;BME280;3038;51.122;6.840;2023-02-13T05:12:48;103374.16;;;8.44;78.44
6020;BME280;3038;51.122;6.840;2023-02-13T05:15:13;103374.00;;;8.47;78.09
6020;BME280;3038;51.122;6.840;2023-02-13T05:17:39;103367.78;;;8.48;77.69
6020;BME280;3038;51.122;6.840;2023-02-13T05:20:07;103380.31;;;8.45;78.32
6020;BME280;3038;51.122;6.840;2023-02-13T05:22:33;103370.56;;;8.45;78.61
6020;BME280;3038;51.122;6.840;2023-02-13T05:25:17;103379.06;;;8.52;78.34
6020;BME280;3038;51.122;6.840;2023-02-13T05:27:42;103373.16;;;8.47;77.82
6020;BME280;3038;51.122;6.840;2023-02-13T05:30:08;103377.75;;;8.43;77.97
6020;BME280;3038;51.122;6.840;2023-02-13T05:32:34;103380.75;;;8.36;78.29
6020;BME280;3038;51.122;6.840;2023-02-13T05:34:59;103375.53;;;8.34;78.61
6020;BME280;3038;51.122;6.840;2023-02-13T05:37:24;103372.03;;;8.34;78.17
6020;BME280;3038;51.122;6.840;2023-02-13T05:39:50;103380.22;;;8.29;78.59
6020;BME280;3038;51.122;6.840;2023-02-13T05:42:15;103378.75;;;8.23;78.66
6020;BME280;3038;51.122;6.840;2023-02-13T05:44:40;103380.00;;;8.16;78.45
6020;BME280;3038;51.122;6.840;2023-02-13T05:47:06;103384.22;;;8.03;78.98
6020;BME280;3038;51.122;6.840;2023-02-13T05:49:31;103385.34;;;7.97;78.94
6020;BME280;3038;51.122;6.840;2023-02-13T05:51:57;103383.25;;;7.87;79.40
6020;BME280;3038;51.122;6.840;2023-02-13T05:54:22;103392.44;;;7.80;79.28
6020;BME280;3038;51.122;6.840;2023-02-13T05:56:47;103386.53;;;7.75;79.50
6020;BME280;3038;51.122;6.840;2023-02-13T05:59:13;103385.03;;;7.69;79.62
6020;BME280;3038;51.122;6.840;2023-02-13T06:01:38;103377.34;;;7.64;79.20
6020;BME280;3038;51.122;6.840;2023-02-13T06:04:04;103378.31;;;7.62;79.79
6020;BME280;3038;51.122;6.840;2023-02-13T06:06:29;103379.41;;;7.58;80.03
6020;BME280;3038;51.122;6.840;2023-02-13T06:08:55;103380.56;;;7.52;79.91
6020;BME280;3038;51.122;6.840;2023-02-13T06:11:20;103381.00;;;7.43;80.30
6020;BME280;3038;51.122;6.840;2023-02-13T06:13:45;103378.75;;;7.35;80.44
6020;BME280;3038;51.122;6.840;2023-02-13T06:16:11;103379.81;;;7.31;80.54
6020;BME280;3038;51.122;6.840;2023-02-13T06:18:37;103375.69;;;7.26;80.70
6020;BME280;3038;51.122;6.840;2023-02-13T06:21:04;103373.31;;;7.19;81.09
6020;BME280;3038;51.122;6.840;2023-02-13T06:23:29;103378.81;;;7.15;81.47
6020;BME280;3038;51.122;6.840;2023-02-13T06:25:55;103378.25;;;7.08;81.26
6020;BME280;3038;51.122;6.840;2023-02-13T06:28:20;103375.75;;;7.05;81.42
6020;BME280;3038;51.122;6.840;2023-02-13T06:30:47;103384.69;;;7.03;81.37
6020;BME280;3038;51.122;6.840;2023-02-13T06:33:13;103378.69;;;6.99;81.85
6020;BME280;3038;51.122;6.840;2023-02-13T06:35:38;103380.47;;;6.99;81.84
6020;BME280;3038;51.122;6.840;2023-02-13T06:38:04;103383.25;;;6.95;81.95
6020;BME280;3038;51.122;6.840;2023-02-13T06:40:29;103379.81;;;6.93;81.75
6020;BME280;3038;51.122;6.840;2023-02-13T06:42:54;103378.97;;;6.93;81.73
6020;BME280;3038;51.122;6.840;2023-02-13T06:45:20;103379.94;;;6.90;81.34
6020;BME280;3038;51.122;6.840;2023-02-13T06:47:47;103382.88;;;6.84;81.82
6020;BME280;3038;51.122;6.840;2023-02-13T06:50:14;103374.09;;;6.84;82.00
6020;BME280;3038;51.122;6.840;2023-02-13T06:52:44;103374.19;;;6.82;82.23
6020;BME280;3038;51.122;6.840;2023-02-13T06:55:10;103370.69;;;6.82;81.85
6020;BME280;3038;51.122;6.840;2023-02-13T06:57:35;103374.31;;;6.79;81.99
6020;BME280;3038;51.122;6.840;2023-02-13T07:00:01;103367.38;;;6.77;81.98
6020;BME280;3038;51.122;6.840;2023-02-13T07:02:30;103379.69;;;6.78;82.00
6020;BME280;3038;51.122;6.840;2023-02-13T07:04:56;103377.94;;;6.77;82.18
6020;BME280;3038;51.122;6.840;2023-02-13T07:07:21;103377.09;;;6.76;81.81
6020;BME280;3038;51.122;6.840;2023-02-13T07:09:46;103381.50;;;6.76;81.96
6020;BME280;3038;51.122;6.840;2023-02-13T07:12:12;103382.44;;;6.75;82.01
6020;BME280;3038;51.122;6.840;2023-02-13T07:14:37;103381.66;;;6.73;82.14
6020;BME280;3038;51.122;6.840;2023-02-13T07:17:02;103385.22;;;6.72;82.44
6020;BME280;3038;51.122;6.840;2023-02-13T07:19:28;103383.50;;;6.70;82.03
6020;BME280;3038;51.122;6.840;2023-02-13T07:21:53;103377.50;;;6.67;82.47
6020;BME280;3038;51.122;6.840;2023-02-13T07:24:18;103380.09;;;6.68;82.57
6020;BME280;3038;51.122;6.840;2023-02-13T07:26:44;103382.78;;;6.67;82.66
6020;BME280;3038;51.122;6.840;2023-02-13T07:29:09;103381.88;;;6.68;82.92
6020;BME280;3038;51.122;6.840;2023-02-13T07:31:34;103380.09;;;6.68;82.85
6020;BME280;3038;51.122;6.840;2023-02-13T07:34:00;103381.66;;;6.73;82.68
6020;BME280;3038;51.122;6.840;2023-02-13T07:36:26;103383.22;;;6.77;82.82
6020;BME280;3038;51.122;6.840;2023-02-13T07:38:51;103377.72;;;6.81;82.66
6020;BME280;3038;51.122;6.840;2023-02-13T07:41:17;103376.75;;;6.84;82.50
6020;BME280;3038;51.122;6.840;2023-02-13T07:43:42;103385.41;;;6.87;82.74
6020;BME280;3038;51.122;6.840;2023-02-13T07:46:08;103376.41;;;6.91;82.28
6020;BME280;3038;51.122;6.840;2023-02-13T07:48:33;103380.69;;;6.94;82.36
6020;BME280;3038;51.122;6.840;2023-02-13T07:51:01;103375.25;;;6.97;82.38
6020;BME280;3038;51.122;6.840;2023-02-13T07:53:27;103387.41;;;7.01;82.19
6020;BME280;3038;51.122;6.840;2023-02-13T07:55:53;103388.09;;;7.05;81.84
6020;BME280;3038;51.122;6.840;2023-02-13T07:58:18;103389.75;;;7.07;82.31
6020;BME280;3038;51.122;6.840;2023-02-13T08:00:43;103393.97;;;7.11;81.98
6020;BME280;3038;51.122;6.840;2023-02-13T08:03:09;103384.09;;;7.15;81.96
6020;BME280;3038;51.122;6.840;2023-02-13T08:05:35;103388.41;;;7.17;82.04
6020;BME280;3038;51.122;6.840;2023-02-13T08:08:01;103387.31;;;7.21;81.62
6020;BME280;3038;51.122;6.840;2023-02-13T08:10:27;103387.97;;;7.27;81.68
6020;BME280;3038;51.122;6.840;2023-02-13T08:13:12;103395.69;;;7.31;81.00
6020;BME280;3038;51.122;6.840;2023-02-13T08:15:39;103386.59;;;7.37;81.27
6020;BME280;3038;51.122;6.840;2023-02-13T08:18:05;103390.81;;;7.41;81.45
6020;BME280;3038;51.122;6.840;2023-02-13T08:20:30;103388.81;;;7.46;80.81
6020;BME280;3038;51.122;6.840;2023-02-13T08:23:04;103387.56;;;7.53;81.28
6020;BME280;3038;51.122;6.840;2023-02-13T08:25:30;103392.56;;;7.59;80.60
6020;BME280;3038;51.122;6.840;2023-02-13T08:27:57;103389.66;;;7.64;80.26
6020;BME280;3038;51.122;6.840;2023-02-13T08:30:22;103390.38;;;7.67;79.96
6020;BME280;3038;51.122;6.840;2023-02-13T08:32:47;103391.88;;;7.73;79.89
6020;BME280;3038;51.122;6.840;2023-02-13T08:35:13;103390.72;;;7.79;79.67
6020;BME280;3038;51.122;6.840;2023-02-13T08:37:38;103398.34;;;7.85;79.58
6020;BME280;3038;51.122;6.840;2023-02-13T08:40:06;103393.59;;;7.91;78.82
6020;BME280;3038;51.122;6.840;2023-02-13T08:42:35;103396.66;;;8.01;79.09
6020;BME280;3038;51.122;6.840;2023-02-13T08:45:00;103383.91;;;8.09;78.77
6020;BME280;3038;51.122;6.840;2023-02-13T08:47:26;103388.00;;;8.15;78.46
6020;BME280;3038;51.122;6.840;2023-02-13T08:49:51;103391.03;;;8.24;78.30
6020;BME280;3038;51.122;6.840;2023-02-13T08:52:16;103385.50;;;8.29;77.95
6020;BME280;3038;51.122;6.840;2023-02-13T08:54:42;103379.63;;;8.41;77.27
6020;BME280;3038;51.122;6.840;2023-02-13T08:57:07;103381.25;;;8.44;77.21
6020;BME280;3038;51.122;6.840;2023-02-13T08:59:32;103394.00;;;8.53;76.74
6020;BME280;3038;51.122;6.840;2023-02-13T09:01:58;103389.06;;;8.63;76.86
6020;BME280;3038;51.122;6.840;2023-02-13T09:04:23;103396.78;;;8.67;76.34
6020;BME280;3038;51.122;6.840;2023-02-13T09:06:48;103386.03;;;8.70;76.23
6020;BME280;3038;51.122;6.840;2023-02-13T09:09:14;103386.31;;;8.82;76.09
6020;BME280;3038;51.122;6.840;2023-02-13T09:11:40;103379.72;;;8.89;76.10
6020;BME280;3038;51.122;6.840;2023-02-13T09:14:05;103380.91;;;8.99;75.57
6020;BME280;3038;51.122;6.840;2023-02-13T09:16:31;103387.09;;;8.99;74.90
6020;BME280;3038;51.122;6.840;2023-02-13T09:18:56;103381.72;;;9.01;74.33
6020;BME280;3038;51.122;6.840;2023-02-13T09:21:22;103387.28;;;9.12;74.09
6020;BME280;3038;51.122;6.840;2023-02-13T09:23:48;103380.50;;;9.22;74.12
6020;BME280;3038;51.122;6.840;2023-02-13T09:26:15;103374.78;;;9.30;73.49
6020;BME280;3038;51.122;6.840;2023-02-13T09:28:41;103384.19;;;9.36;72.94
6020;BME280;3038;51.122;6.840;2023-02-13T09:31:11;103390.94;;;9.41;72.37
6020;BME280;3038;51.122;6.840;2023-02-13T09:33:37;103390.69;;;9.46;72.32
6020;BME280;3038;51.122;6.840;2023-02-13T09:36:07;103390.00;;;9.58;72.38
6020;BME280;3038;51.122;6.840;2023-02-13T09:38:33;103382.44;;;9.66;71.39
6020;BME280;3038;51.122;6.840;2023-02-13T09:41:05;103379.47;;;9.72;70.73
6020;BME280;3038;51.122;6.840;2023-02-13T09:43:48;103385.56;;;9.89;71.11
6020;BME280;3038;51.122;6.840;2023-02-13T09:46:21;103388.84;;;10.08;70.59
6020;BME280;3038;51.122;6.840;2023-02-13T09:48:52;103381.63;;;10.26;69.24
6020;BME280;3038;51.122;6.840;2023-02-13T09:51:20;103389.97;;;10.34;69.42
6020;BME280;3038;51.122;6.840;2023-02-13T09:53:53;103386.84;;;10.42;68.51
6020;BME280;3038;51.122;6.840;2023-02-13T10:01:48;103392.06;;;11.69;65.63
6020;BME280;3038;51.122;6.840;2023-02-13T10:04:28;103389.81;;;14.35;56.38
6020;BME280;3038;51.122;6.840;2023-02-13T10:07:20;103392.06;;;15.84;51.87
6020;BME280;3038;51.122;6.840;2023-02-13T10:09:55;103380.44;;;16.67;49.31
6020;BME280;3038;51.122;6.840;2023-02-13T10:18:30;103378.13;;;17.63;46.41
6020;BME280;3038;51.122;6.840;2023-02-13T10:20:59;103382.94;;;17.69;47.15
6020;BME280;3038;51.122;6.840;2023-02-13T10:23:45;103384.66;;;17.70;45.38
6020;BME280;3038;51.122;6.840;2023-02-13T10:26:17;103383.13;;;17.77;47.28
6020;BME280;3038;51.122;6.840;2023-02-13T10:28:56;103381.97;;;18.09;45.39
6020;BME280;3038;51.122;6.840;2023-02-13T10:31:43;103379.59;;;18.53;45.49
6020;BME280;3038;51.122;6.840;2023-02-13T10:34:15;103385.75;;;19.00;43.36
6020;BME280;3038;51.122;6.840;2023-02-13T10:36:43;103377.97;;;19.24;42.27
6020;BME280;3038;51.122;6.840;2023-02-13T10:47:22;103376.66;;;20.52;38.56
6020;BME280;3038;51.122;6.840;2023-02-13T10:52:56;103378.53;;;21.93;36.46
6020;BME280;3038;51.122;6.840;2023-02-13T10:55:30;103378.81;;;22.39;37.16
6020;BME280;3038;51.122;6.840;2023-02-13T10:58:21;103374.94;;;22.81;33.87
6020;BME280;3038;51.122;6.840;2023-02-13T11:01:07;103372.72;;;22.84;33.54
6020;BME280;3038;51.122;6.840;2023-02-13T11:03:34;103365.66;;;22.75;36.31
6020;BME280;3038;51.122;6.840;2023-02-13T11:06:05;103363.41;;;22.87;33.88
6020;BME280;3038;51.122;6.840;2023-02-13T11:08:39;103363.66;;;23.54;33.54
6020;BME280;3038;51.122;6.840;2023-02-13T11:11:29;103356.81;;;24.04;31.74
6020;BME280;3038;51.122;6.840;2023-02-13T11:14:12;103348.94;;;24.09;32.10
6020;BME280;3038;51.122;6.840;2023-02-13T11:17:05;103347.69;;;23.59;31.69
6020;BME280;3038;51.122;6.840;2023-02-13T11:19:35;103343.59;;;23.64;33.71
6020;BME280;3038;51.122;6.840;2023-02-13T11:22:11;103341.16;;;23.92;31.53
6020;BME280;3038;51.122;6.840;2023-02-13T11:24:40;103331.13;;;23.92;32.22
6020;BME280;3038;51.122;6.840;2023-02-13T11:27:09;103337.41;;;24.07;31.30
6020;BME280;3038;51.122;6.840;2023-02-13T11:29:55;103337.34;;;24.16;30.78
6020;BME280;3038;51.122;6.840;2023-02-13T11:32:30;103328.72;;;24.27;30.19
6020;BME280;3038;51.122;6.840;2023-02-13T11:34:56;103321.41;;;24.13;31.85
6020;BME280;3038;51.122;6.840;2023-02-13T11:37:27;103311.97;;;24.53;30.85
6020;BME280;3038;51.122;6.840;2023-02-13T11:39:55;103304.97;;;24.80;30.90
6020;BME280;3038;51.122;6.840;2023-02-13T11:44:57;103300.91;;;25.27;29.30
6020;BME280;3038;51.122;6.840;2023-02-13T11:47:32;103307.88;;;25.36;28.93
6020;BME280;3038;51.122;6.840;2023-02-13T11:49:58;103306.91;;;26.28;29.66
6020;BME280;3038;51.122;6.840;2023-02-13T11:52:30;103295.28;;;26.54;27.23
6020;BME280;3038;51.122;6.840;2023-02-13T11:55:23;103290.00;;;26.04;27.66
6020;BME280;3038;51.122;6.840;2023-02-13T11:58:03;103283.31;;;25.51;27.83
6020;BME280;3038;51.122;6.840;2023-02-13T12:00:43;103281.41;;;25.73;29.39
6020;BME280;3038;51.122;6.840;2023-02-13T12:06:15;103279.78;;;26.06;27.21
6020;BME280;3038;51.122;6.840;2023-02-13T12:08:45;103274.94;;;26.08;27.76
6020;BME280;3038;51.122;6.840;2023-02-13T12:11:23;103272.31;;;26.70;26.72
6020;BME280;3038;51.122;6.840;2023-02-13T12:13:54;103268.50;;;26.64;27.94
6020;BME280;3038;51.122;6.840;2023-02-13T12:16:29;103268.38;;;26.37;26.63
6020;BME280;3038;51.122;6.840;2023-02-13T12:19:01;103265.44;;;26.32;27.63
6020;BME280;3038;51.122;6.840;2023-02-13T12:46:47;103239.25;;;27.52;24.95
6020;BME280;3038;51.122;6.840;2023-02-13T13:02:46;103217.13;;;24.36;29.24
6020;BME280;3038;51.122;6.840;2023-02-13T13:05:39;103212.91;;;23.07;31.42
6020;BME280;3038;51.122;6.840;2023-02-13T13:16:50;103207.91;;;19.97;36.24
6020;BME280;3038;51.122;6.840;2023-02-13T13:22:53;103199.56;;;19.57;37.92
6020;BME280;3038;51.122;6.840;2023-02-13T13:25:37;103199.53;;;20.09;36.73
6020;BME280;3038;51.122;6.840;2023-02-13T13:28:26;103203.16;;;21.41;34.79
6020;BME280;3038;51.122;6.840;2023-02-13T13:30:54;103202.03;;;22.84;33.68
6020;BME280;3038;51.122;6.840;2023-02-13T13:33:23;103188.81;;;23.95;31.33
6020;BME280;3038;51.122;6.840;2023-02-13T13:38:36;103189.22;;;23.39;31.06
6020;BME280;3038;51.122;6.840;2023-02-13T13:41:10;103187.94;;;22.43;32.86
6020;BME280;3038;51.122;6.840;2023-02-13T13:44:01;103190.38;;;21.91;34.64
6020;BME280;3038;51.122;6.840;2023-02-13T13:52:20;103177.09;;;20.59;35.75
6020;BME280;3038;51.122;6.840;2023-02-13T13:54:45;103179.22;;;20.39;36.54
6020;BME280;3038;51.122;6.840;2023-02-13T13:58:01;103168.53;;;20.13;36.77
6020;BME280;3038;51.122;6.840;2023-02-13T14:03:19;103164.59;;;19.65;37.38
6020;BME280;3038;51.122;6.840;2023-02-13T14:06:00;103157.94;;;19.51;37.11
6020;BME280;3038;51.122;6.840;2023-02-13T14:13:50;103148.66;;;21.77;33.86
6020;BME280;3038;51.122;6.840;2023-02-13T14:16:41;103154.38;;;22.52;32.12
6020;BME280;3038;51.122;6.840;2023-02-13T14:19:34;103148.22;;;22.81;32.24
6020;BME280;3038;51.122;6.840;2023-02-13T14:22:34;103155.28;;;22.14;32.41
6020;BME280;3038;51.122;6.840;2023-02-13T14:25:04;103147.22;;;21.42;34.89
6020;BME280;3038;51.122;6.840;2023-02-13T14:27:35;103149.44;;;20.73;35.16
6020;BME280;3038;51.122;6.840;2023-02-13T14:30:02;103150.03;;;20.26;36.60
6020;BME280;3038;51.122;6.840;2023-02-13T14:32:34;103144.78;;;19.74;37.21
6020;BME280;3038;51.122;6.840;2023-02-13T14:35:04;103138.38;;;19.23;37.57
6020;BME280;3038;51.122;6.840;2023-02-13T14:37:37;103147.19;;;18.89;38.11
6020;BME280;3038;51.122;6.840;2023-02-13T14:42:43;103147.41;;;18.60;39.38
6020;BME280;3038;51.122;6.840;2023-02-13T14:45:14;103146.41;;;18.43;39.50
6020;BME280;3038;51.122;6.840;2023-02-13T14:47:53;103148.22;;;18.25;39.32
6020;BME280;3038;51.122;6.840;2023-02-13T14:53:08;103144.91;;;17.86;40.39
6020;BME280;3038;51.122;6.840;2023-02-13T14:55:42;103139.44;;;17.68;41.08
6020;BME280;3038;51.122;6.840;2023-02-13T14:58:24;103142.84;;;17.70;41.30
6020;BME280;3038;51.122;6.840;2023-02-13T15:03:39;103135.34;;;17.27;41.60
6020;BME280;3038;51.122;6.840;2023-02-13T15:06:29;103136.75;;;17.11;42.46
6020;BME280;3038;51.122;6.840;2023-02-13T15:08:59;103128.28;;;16.96;42.91
6020;BME280;3038;51.122;6.840;2023-02-13T15:19:24;103119.38;;;16.67;43.74
6020;BME280;3038;51.122;6.840;2023-02-13T15:21:53;103122.38;;;16.64;43.92
6020;BME280;3038;51.122;6.840;2023-02-13T15:24:20;103117.28;;;16.61;44.11
6020;BME280;3038;51.122;6.840;2023-02-13T15:26:55;103121.22;;;16.57;43.87
6020;BME280;3038;51.122;6.840;2023-02-13T15:29:22;103116.72;;;16.86;43.29
6020;BME280;3038;51.122;6.840;2023-02-13T15:31:48;103109.09;;;16.91;43.04
6020;BME280;3038;51.122;6.840;2023-02-13T15:36:48;103114.31;;;16.35;44.35
6020;BME280;3038;51.122;6.840;2023-02-13T15:39:19;103118.22;;;16.21;45.18
6020;BME280;3038;51.122;6.840;2023-02-13T15:41:48;103116.19;;;16.04;45.24
6020;BME280;3038;51.122;6.840;2023-02-13T15:44:21;103113.78;;;15.91;45.25
6020;BME280;3038;51.122;6.840;2023-02-13T15:46:49;103106.81;;;15.79;45.59
6020;BME280;3038;51.122;6.840;2023-02-13T15:49:20;103112.84;;;15.71;45.96
6020;BME280;3038;51.122;6.840;2023-02-13T15:51:49;103111.22;;;15.59;46.47
6020;BME280;3038;51.122;6.840;2023-02-13T15:56:46;103116.03;;;15.34;46.49
6020;BME280;3038;51.122;6.840;2023-02-13T15:59:13;103116.13;;;15.23;46.51
6020;BME280;3038;51.122;6.840;2023-02-13T16:01:40;103112.50;;;15.13;46.72
6020;BME280;3038;51.122;6.840;2023-02-13T16:04:10;103112.56;;;15.02;47.15
6020;BME280;3038;51.122;6.840;2023-02-13T16:06:37;103116.88;;;14.93;47.33
6020;BME280;3038;51.122;6.840;2023-02-13T16:09:03;103101.75;;;14.82;47.25
6020;BME280;3038;51.122;6.840;2023-02-13T16:11:39;103098.16;;;14.72;47.83
6020;BME280;3038;51.122;6.840;2023-02-13T16:14:21;103110.84;;;14.59;47.67
6020;BME280;3038;51.122;6.840;2023-02-13T16:21:49;103117.84;;;14.28;48.50